KHSB

Harrisburg-Raleigh Airport

Harrisburg, Illinois, USA
METAR KHSB 140435Z AUTO 36005KT 10SM CLR M05/M07 A3054 RMK AO2 T10461070
Observed Flight Rules
Nov-14 @ 04:35 UTC (27 minutes ago) Visual Flight Rules
Wind Visibility Clouds
360° at 5 knots 10 miles
  • Clear skies
Temperatures Readings
Current -5°C / 23°F
Dewpoint -7°C / 19°F
Humidity 86%
Altimeter 30.54" Hg
Pressure 1034 hPa
Elevation 121
METAR KHSB 140435Z AUTO 36005KT 10SM CLR M05/M07 A3054 RMK AO2 T10461070
Observed Flight Rules
Nov-14 @ 04:35 UTC
(27 minutes ago)
VFR
Wind Visibility
360° at 5 knots 10 miles
Clouds
  • Clear skies
Temperature Dewpoint
-5°C / 23°F -7°C / 19°F
Humidity Altimeter Pressure
86% 30.54" Hg 1034 hPa